Time;durP1;ratioP1;P1;durP2;ratioP2;P2;SDS_P1;SDS_P2;PMS_P1;PMS_P2;Temp;Humidity;BMP_temperature;BMP_pressure;BME280_temperature;BME280_humidity;BME280_pressure;Samples;Min_cycle;Max_cycle;Signal;HPM_P1;HPM_P2
2023/03/24 00:02:19;;;;;;;3.53;3.33;;;;;;;11.09;89.98;99675.72;5117078;28;20297;-71
2023/03/24 00:04:51;;;;;;;4.60;4.40;;;;;;;11.03;89.75;99669.91;5117147;28;20647;-71
2023/03/24 00:07:18;;;;;;;4.57;4.10;;;;;;;11.07;90.48;99668.63;5117116;28;20188;-71
2023/03/24 00:09:45;;;;;;;4.40;4.20;;;;;;;11.05;89.70;99662.56;5117296;28;20181;-71
2023/03/24 00:12:12;;;;;;;4.43;4.23;;;;;;;11.06;89.99;99658.94;5116658;28;20268;-70
2023/03/24 00:14:39;;;;;;;3.77;3.47;;;;;;;11.02;90.25;99653.97;5116765;28;20219;-71
2023/03/24 00:17:11;;;;;;;5.90;5.27;;;;;;;11.05;90.54;99664.41;5116642;28;20185;-71
2023/03/24 00:19:38;;;;;;;4.03;3.93;;;;;;;11.07;90.05;99652.56;5116714;28;20177;-71
2023/03/24 00:22:07;;;;;;;8.33;4.80;;;;;;;11.05;90.52;99656.38;5116396;28;20219;-70
2023/03/24 00:24:34;;;;;;;4.20;3.93;;;;;;;11.09;89.93;99646.25;5116590;28;20185;-70
2023/03/24 00:27:02;;;;;;;3.80;3.50;;;;;;;11.05;90.22;99643.81;5116343;28;20659;-71
2023/03/24 00:29:28;;;;;;;4.67;4.47;;;;;;;11.10;90.66;99642.56;5116708;28;20181;-71
2023/03/24 00:31:55;;;;;;;3.83;3.63;;;;;;;11.11;90.24;99639.75;5098068;28;20254;-71
2023/03/24 00:34:22;;;;;;;6.53;4.03;;;;;;;11.16;90.52;99634.81;5116239;28;20270;-71
2023/03/24 00:36:50;;;;;;;3.77;3.50;;;;;;;11.13;90.74;99632.38;5116585;28;20169;-71
2023/03/24 00:39:18;;;;;;;2.47;2.47;;;;;;;11.16;89.82;99618.72;5116233;28;20670;-71
2023/03/24 00:41:46;;;;;;;3.43;3.17;;;;;;;11.16;89.97;99615.22;5116153;28;20196;-71
2023/03/24 00:44:18;;;;;;;3.77;3.57;;;;;;;11.17;90.31;99603.50;5116147;28;20228;-71
2023/03/24 00:46:54;;;;;;;2.90;2.90;;;;;;;11.18;90.28;99605.16;5096707;28;20185;-71
2023/03/24 00:49:41;;;;;;;4.50;4.23;;;;;;;11.18;89.68;99598.00;5116126;28;20165;-72
2023/03/24 00:52:09;;;;;;;3.73;3.63;;;;;;;11.15;89.89;99589.38;5115952;28;20191;-71
2023/03/24 00:54:37;;;;;;;3.53;3.30;;;;;;;11.19;90.28;99588.13;5116236;28;20192;-71
2023/03/24 00:57:05;;;;;;;4.20;4.00;;;;;;;11.20;89.54;99577.25;5116155;28;20191;-71
2023/03/24 00:59:31;;;;;;;5.17;4.70;;;;;;;11.23;89.46;99579.66;5116133;28;20185;-71
2023/03/24 01:01:58;;;;;;;6.30;3.00;;;;;;;11.19;89.69;99582.75;5115723;28;20201;-71
2023/03/24 01:04:25;;;;;;;3.70;3.60;;;;;;;11.22;90.28;99577.09;5097333;28;20213;-70
2023/03/24 01:06:53;;;;;;;2.70;2.70;;;;;;;11.21;90.11;99581.63;5115973;28;20200;-70
2023/03/24 01:09:20;;;;;;;2.70;2.50;;;;;;;11.19;90.04;99569.34;5115639;28;20192;-70
2023/03/24 01:11:47;;;;;;;3.57;3.47;;;;;;;11.29;90.32;99571.03;5115629;28;20717;-71
2023/03/24 01:14:13;;;;;;;3.13;3.00;;;;;;;11.29;89.83;99564.81;5115506;28;20208;-71
2023/03/24 01:16:41;;;;;;;4.00;3.20;;;;;;;11.23;90.89;99565.41;5115541;28;20589;-71
2023/03/24 01:19:08;;;;;;;3.20;3.20;;;;;;;11.22;90.16;99558.34;5115463;28;20250;-71
2023/03/24 01:21:36;;;;;;;3.67;3.57;;;;;;;11.26;90.51;99565.13;5097049;28;20196;-71
2023/03/24 01:24:04;;;;;;;3.23;3.23;;;;;;;11.25;90.70;99558.91;5115320;28;20209;-71
2023/03/24 01:26:31;;;;;;;3.27;3.17;;;;;;;11.23;91.04;99552.84;5115371;28;20189;-71
2023/03/24 01:28:57;;;;;;;3.40;3.30;;;;;;;11.24;91.03;99551.00;5097002;28;20287;-71
2023/03/24 01:31:24;;;;;;;3.70;3.57;;;;;;;11.27;90.13;99548.88;5097013;28;20189;-71
2023/03/24 01:33:50;;;;;;;3.57;3.40;;;;;;;11.27;90.30;99543.50;5115143;28;20205;-71
2023/03/24 01:36:16;;;;;;;3.03;2.93;;;;;;;11.36;90.05;99549.84;5115104;28;20656;-71
2023/03/24 01:38:43;;;;;;;3.50;3.40;;;;;;;11.29;90.58;99548.75;5096837;28;20280;-71
2023/03/24 01:41:10;;;;;;;3.03;2.97;;;;;;;11.32;91.21;99536.88;5096735;28;20548;-71
2023/03/24 01:43:36;;;;;;;3.00;2.90;;;;;;;11.36;90.13;99543.66;5114813;28;20240;-71
2023/03/24 01:46:22;;;;;;;3.57;3.30;;;;;;;11.39;90.68;99528.09;5114894;28;20219;-71
2023/03/24 01:48:54;;;;;;;2.97;2.87;;;;;;;11.41;90.17;99526.13;5096670;28;20195;-71
2023/03/24 01:51:29;;;;;;;4.23;3.20;;;;;;;11.43;90.29;99520.63;5096598;28;20553;-71
2023/03/24 01:54:03;;;;;;;2.93;2.93;;;;;;;11.48;89.89;99513.00;5096745;28;20616;-71
2023/03/24 01:56:32;;;;;;;5.27;3.10;;;;;;;11.43;90.84;99501.88;5115242;28;20590;-71
2023/03/24 01:59:04;;;;;;;4.40;3.47;;;;;;;11.42;90.18;99502.84;5096630;28;20546;-71
2023/03/24 02:01:42;;;;;;;4.30;4.30;;;;;;;11.45;90.18;99486.50;5096537;28;20659;-71
2023/03/24 02:04:24;;;;;;;3.57;3.47;;;;;;;11.45;89.66;99487.31;5096477;28;20209;-71
2023/03/24 02:06:52;;;;;;;3.63;3.53;;;;;;;11.49;89.37;99479.81;5096253;28;20220;-71
2023/03/24 02:09:19;;;;;;;3.80;3.63;;;;;;;11.52;88.85;99476.88;5096211;28;20283;-71
2023/03/24 02:11:45;;;;;;;4.20;4.00;;;;;;;11.44;90.24;99474.91;5114465;28;20590;-71
2023/03/24 02:14:12;;;;;;;4.53;4.27;;;;;;;11.46;89.93;99470.22;5096168;28;20240;-71
2023/03/24 02:16:57;;;;;;;4.50;4.23;;;;;;;11.48;89.73;99462.91;5096129;28;20203;-72
2023/03/24 02:19:53;;;;;;;4.67;4.57;;;;;;;11.48;90.50;99462.91;5114601;28;20181;-72
2023/03/24 02:22:51;;;;;;;4.53;4.43;;;;;;;11.44;89.95;99453.44;5095881;28;20205;-71
2023/03/24 02:25:52;;;;;;;3.70;3.63;;;;;;;11.46;91.00;99447.94;5096035;28;20192;-71
2023/03/24 02:28:40;;;;;;;4.43;4.33;;;;;;;11.45;91.02;99457.84;5096020;28;20600;-71
2023/03/24 02:31:16;;;;;;;5.90;5.70;;;;;;;11.48;90.48;99438.75;5095886;28;20685;-72
2023/03/24 02:34:13;;;;;;;4.87;4.33;;;;;;;11.36;91.34;99436.44;5095779;28;20209;-72
2023/03/24 02:37:20;;;;;;;4.23;3.97;;;;;;;11.37;92.04;99438.94;5114332;28;20176;-72
2023/03/24 02:40:11;;;;;;;6.90;4.50;;;;;;;11.41;92.02;99426.09;5095604;28;20268;-72
2023/03/24 02:43:15;;;;;;;5.03;4.83;;;;;;;11.42;91.37;99419.75;5113859;28;20690;-71
2023/03/24 02:46:01;;;;;;;5.27;5.10;;;;;;;11.43;91.64;99408.88;5096276;28;20200;-71
2023/03/24 02:48:35;;;;;;;4.30;4.20;;;;;;;11.49;90.87;99405.63;5114455;28;20276;-72
2023/03/24 02:51:24;;;;;;;4.47;4.37;;;;;;;11.48;91.44;99409.28;5095568;28;20211;-72
2023/03/24 02:54:12;;;;;;;4.73;3.87;;;;;;;11.52;91.59;99409.84;5095497;28;20207;-72
2023/03/24 02:57:16;;;;;;;4.07;3.80;;;;;;;11.51;92.35;99408.13;5095820;28;20601;-72
2023/03/24 03:00:17;;;;;;;5.17;4.97;;;;;;;11.54;92.20;99391.75;5114058;28;20176;-72
2023/03/24 03:03:40;;;;;;;5.00;4.90;;;;;;;11.55;92.27;99381.88;5112986;28;20270;-71
2023/03/24 03:06:16;;;;;;;4.60;4.40;;;;;;;11.58;91.44;99387.78;5083832;28;20196;-71
2023/03/24 03:08:46;;;;;;;4.90;4.77;;;;;;;11.62;91.19;99380.28;5114388;28;20181;-71
2023/03/24 03:11:15;;;;;;;4.17;4.17;;;;;;;11.64;91.42;99378.31;5118352;28;20220;-71
2023/03/24 03:13:49;;;;;;;4.63;4.53;;;;;;;11.70;90.91;99378.53;5117811;28;20596;-72
2023/03/24 03:16:24;;;;;;;3.80;3.70;;;;;;;11.76;90.41;99381.63;5099685;28;20177;-72
2023/03/24 03:18:57;;;;;;;3.60;3.40;;;;;;;11.76;89.86;99379.78;5100059;28;20189;-72
2023/03/24 03:21:28;;;;;;;4.27;4.10;;;;;;;11.78;90.33;99375.09;5100343;28;20195;-72
2023/03/24 03:24:03;;;;;;;3.80;3.80;;;;;;;11.85;89.60;99365.47;5117573;28;20213;-71
2023/03/24 03:26:31;;;;;;;3.70;3.60;;;;;;;11.87;88.86;99376.03;5117590;28;20284;-71
2023/03/24 03:29:04;;;;;;;3.90;3.90;;;;;;;11.99;88.84;99373.97;5117635;28;20530;-71
2023/03/24 03:31:48;;;;;;;4.07;3.97;;;;;;;11.97;88.06;99374.16;5117569;28;20173;-71
2023/03/24 03:34:30;;;;;;;4.40;4.30;;;;;;;12.11;87.58;99376.31;5117511;28;20292;-71
2023/03/24 03:37:21;;;;;;;3.93;3.63;;;;;;;12.11;87.31;99370.06;5117726;28;20172;-71
2023/03/24 03:40:00;;;;;;;3.97;3.87;;;;;;;12.12;86.89;99377.16;5100331;28;20193;-71
2023/03/24 03:42:28;;;;;;;3.97;3.93;;;;;;;12.20;86.84;99369.16;5099237;28;20217;-71
2023/03/24 03:44:55;;;;;;;4.17;4.07;;;;;;;12.23;86.60;99373.38;5099066;28;20188;-71
2023/03/24 03:47:21;;;;;;;4.37;4.30;;;;;;;12.24;86.68;99370.53;5099840;28;20190;-71
2023/03/24 03:49:49;;;;;;;3.73;3.73;;;;;;;12.30;85.97;99377.94;5098875;28;20189;-71
2023/03/24 03:52:17;;;;;;;4.43;4.23;;;;;;;12.30;85.56;99372.59;5098785;28;20279;-70
2023/03/24 03:54:45;;;;;;;4.57;3.70;;;;;;;12.41;85.68;99362.63;5100031;28;20197;-71
2023/03/24 03:57:13;;;;;;;3.90;3.90;;;;;;;12.49;84.64;99371.56;5098811;28;20272;-71
2023/03/24 04:00:10;;;;;;;3.20;3.20;;;;;;;12.56;84.48;99371.78;5094832;28;20199;-71
2023/03/24 04:02:48;;;;;;;3.97;3.87;;;;;;;12.56;84.67;99369.09;5117470;28;20205;-71
2023/03/24 04:05:18;;;;;;;3.37;3.27;;;;;;;12.60;84.63;99377.72;5098623;28;20192;-71
2023/03/24 04:08:20;;;;;;;3.50;3.40;;;;;;;12.66;84.35;99394.00;5117200;28;20178;-71
2023/03/24 04:10:58;;;;;;;3.70;3.70;;;;;;;12.70;84.20;99398.09;5117176;28;20227;-71
2023/03/24 04:13:44;;;;;;;3.70;3.60;;;;;;;12.74;84.79;99404.00;5098896;28;20304;-71
2023/03/24 04:16:45;;;;;;;3.50;3.30;;;;;;;12.74;84.51;99404.00;5098467;28;20268;-71
2023/03/24 04:19:48;;;;;;;3.63;3.63;;;;;;;12.75;84.68;99419.09;5098447;28;20220;-71
2023/03/24 04:22:31;;;;;;;4.10;3.90;;;;;;;12.84;84.56;99412.78;5117062;28;20584;-70
2023/03/24 04:25:28;;;;;;;4.23;3.97;;;;;;;12.83;84.34;99413.78;5098534;28;20682;-72
2023/03/24 04:28:11;;;;;;;4.33;4.07;;;;;;;12.83;83.59;99419.16;5098600;28;20293;-72
2023/03/24 04:30:54;;;;;;;4.00;3.90;;;;;;;12.83;84.36;99418.31;5117054;28;20199;-72
2023/03/24 04:33:39;;;;;;;4.53;4.33;;;;;;;12.73;84.56;99426.47;5098079;28;20224;-72
2023/03/24 04:36:27;;;;;;;3.83;3.73;;;;;;;12.62;84.20;99421.34;5098055;28;20181;-72
2023/03/24 04:39:27;;;;;;;4.00;3.80;;;;;;;12.53;84.22;99432.03;5115936;28;20313;-72
2023/03/24 04:42:03;;;;;;;6.53;3.87;;;;;;;12.53;83.16;99415.09;5097855;28;20213;-71
2023/03/24 04:44:31;;;;;;;3.23;3.17;;;;;;;12.53;82.95;99417.78;5116371;28;20189;-71
2023/03/24 04:47:23;;;;;;;2.77;2.77;;;;;;;12.58;81.96;99420.00;5116389;28;20173;-72
2023/03/24 04:50:29;;;;;;;2.60;2.57;;;;;;;12.48;83.02;99430.81;5110872;28;20705;-71
2023/03/24 04:52:57;;;;;;;2.53;2.53;;;;;;;12.47;82.76;99437.16;5098100;28;20205;-71
2023/03/24 04:55:49;;;;;;;2.50;2.50;;;;;;;12.48;81.99;99457.69;5116109;28;20189;-72
2023/03/24 04:58:39;;;;;;;2.70;2.50;;;;;;;12.45;82.21;99455.28;5069331;28;20329;-70
2023/03/24 05:01:07;;;;;;;5.17;3.17;;;;;;;12.45;83.01;99490.19;5097563;28;20723;-71
2023/03/24 05:03:36;;;;;;;3.00;3.00;;;;;;;12.37;81.80;99471.31;5097875;28;20211;-71
2023/03/24 05:06:04;;;;;;;3.40;3.30;;;;;;;12.30;80.30;99482.66;5097406;28;20201;-71
2023/03/24 05:08:32;;;;;;;2.90;2.80;;;;;;;12.29;80.27;99494.41;5097511;28;20613;-71
2023/03/24 05:10:59;;;;;;;2.60;2.60;;;;;;;12.28;80.22;99503.47;5097736;28;20223;-71
2023/03/24 05:13:26;;;;;;;2.70;2.50;;;;;;;12.29;80.21;99509.69;5098125;28;20239;-71
2023/03/24 05:15:58;;;;;;;2.20;1.93;;;;;;;12.22;80.25;99524.69;5097693;28;20663;-71
2023/03/24 05:18:32;;;;;;;2.40;2.30;;;;;;;12.16;80.03;99539.53;5097397;28;20192;-71
2023/03/24 05:20:59;;;;;;;2.43;2.40;;;;;;;12.12;80.37;99543.53;5097127;28;20217;-71
2023/03/24 05:23:26;;;;;;;2.30;2.30;;;;;;;12.02;79.21;99559.69;5097551;28;20255;-71
2023/03/24 05:25:54;;;;;;;2.87;2.87;;;;;;;11.94;78.54;99561.41;5096880;28;20532;-71
2023/03/24 05:28:22;;;;;;;2.07;2.07;;;;;;;11.78;77.32;99567.38;5097927;28;20550;-71
2023/03/24 05:30:50;;;;;;;2.70;2.50;;;;;;;11.65;76.41;99578.44;5097242;28;20246;-71
2023/03/24 05:33:37;;;;;;;2.47;2.37;;;;;;;11.54;73.94;99579.47;5096668;28;20213;-71
2023/03/24 05:36:04;;;;;;;2.50;2.33;;;;;;;11.43;74.59;99583.13;5096894;28;20242;-70
2023/03/24 05:38:31;;;;;;;2.30;2.17;;;;;;;11.31;74.36;99588.81;5096866;28;20215;-71
2023/03/24 05:40:59;;;;;;;4.40;3.17;;;;;;;11.20;74.07;99606.72;5097239;28;20189;-71
2023/03/24 05:43:31;;;;;;;2.60;2.60;;;;;;;11.13;74.80;99604.75;5097259;28;20214;-70
2023/03/24 05:46:08;;;;;;;6.93;4.00;;;;;;;11.04;74.51;99614.50;5096617;28;20208;-71
2023/03/24 05:48:35;;;;;;;4.00;3.87;;;;;;;10.95;75.87;99624.22;5096617;28;20193;-71
2023/03/24 05:51:11;;;;;;;3.33;3.33;;;;;;;10.82;76.98;99635.22;5096882;28;20596;-70
2023/03/24 05:53:37;;;;;;;4.50;4.20;;;;;;;10.76;76.93;99645.63;5096501;28;20213;-70
2023/03/24 05:56:15;;;;;;;3.23;3.17;;;;;;;10.69;76.98;99642.66;5096477;28;20707;-70
2023/03/24 05:58:54;;;;;;;3.93;3.83;;;;;;;10.64;77.24;99663.63;5115035;28;20196;-70
2023/03/24 06:01:24;;;;;;;5.03;3.17;;;;;;;10.56;75.78;99658.09;5096935;28;20201;-70
2023/03/24 06:03:57;;;;;;;2.77;2.67;;;;;;;10.54;76.05;99658.25;5096386;28;20220;-71
2023/03/24 06:06:25;;;;;;;5.60;3.63;;;;;;;10.45;75.99;99669.78;5114521;28;20197;-71
2023/03/24 06:08:53;;;;;;;3.63;3.33;;;;;;;10.40;76.81;99682.72;5096157;28;20220;-70
2023/03/24 06:11:20;;;;;;;4.80;4.40;;;;;;;10.42;76.78;99692.31;5096170;28;20679;-70
2023/03/24 06:13:59;;;;;;;4.77;4.60;;;;;;;10.38;75.23;99696.22;5096478;28;20213;-70
2023/03/24 06:16:32;;;;;;;5.17;4.00;;;;;;;10.34;75.24;99692.16;5096381;28;20191;-70
2023/03/24 06:19:01;;;;;;;4.93;4.53;;;;;;;10.29;75.60;99699.72;5096125;28;20250;-70
2023/03/24 06:21:49;;;;;;;9.00;4.47;;;;;;;10.27;74.60;99695.44;5114468;28;20218;-70
2023/03/24 06:24:19;;;;;;;7.80;4.60;;;;;;;10.20;73.48;99692.47;5096285;28;20208;-70
2023/03/24 06:26:48;;;;;;;3.83;3.53;;;;;;;10.21;73.80;99697.69;5096107;28;20197;-70
2023/03/24 06:29:16;;;;;;;8.10;3.90;;;;;;;10.20;73.04;99705.84;5096063;28;20189;-70
2023/03/24 06:31:45;;;;;;;4.93;3.60;;;;;;;10.13;73.78;99702.84;5114080;28;20231;-70
2023/03/24 06:34:11;;;;;;;4.10;3.83;;;;;;;10.18;73.54;99697.94;5095529;28;20201;-70
2023/03/24 06:36:39;;;;;;;3.47;3.30;;;;;;;10.18;73.04;99703.31;5096085;28;20593;-70
2023/03/24 06:39:06;;;;;;;3.93;3.47;;;;;;;10.21;72.22;99705.69;5095729;28;20193;-69
2023/03/24 06:41:33;;;;;;;3.57;3.37;;;;;;;10.20;73.40;99721.91;5095691;28;20250;-70
2023/03/24 06:44:01;;;;;;;7.27;3.70;;;;;;;10.20;72.95;99719.22;5094734;28;20266;-70
2023/03/24 06:46:27;;;;;;;6.47;4.10;;;;;;;10.23;73.13;99722.47;5095561;28;20201;-70
2023/03/24 06:48:54;;;;;;;5.03;2.80;;;;;;;10.25;72.56;99718.81;5096195;28;20193;-70
2023/03/24 06:51:20;;;;;;;4.80;2.50;;;;;;;10.33;71.80;99727.91;5095687;28;20196;-70
2023/03/24 06:53:47;;;;;;;4.70;2.70;;;;;;;10.28;73.17;99727.47;5095699;28;20244;-70
2023/03/24 06:56:16;;;;;;;7.30;2.30;;;;;;;10.30;72.55;99740.72;5095468;28;20193;-70
2023/03/24 06:58:48;;;;;;;3.80;2.90;;;;;;;10.36;71.94;99722.28;5096233;28;20204;-70
2023/03/24 07:01:23;;;;;;;5.20;2.53;;;;;;;10.37;73.30;99739.22;5095756;28;20219;-70
2023/03/24 07:03:55;;;;;;;9.93;2.67;;;;;;;10.46;72.78;99737.53;5095459;28;20220;-69
2023/03/24 07:07:02;;;;;;;5.50;2.77;;;;;;;10.43;73.89;99733.31;5077498;28;20200;-69
2023/03/24 07:10:04;;;;;;;3.90;2.37;;;;;;;10.44;73.37;99737.69;5095686;28;20246;-70
2023/03/24 07:12:30;;;;;;;3.10;2.60;;;;;;;10.46;73.44;99735.69;5095491;28;20248;-69
2023/03/24 07:14:58;;;;;;;5.10;2.90;;;;;;;10.48;74.14;99740.94;5095398;28;20234;-69
2023/03/24 07:17:25;;;;;;;8.53;2.87;;;;;;;10.47;74.01;99747.28;5095307;28;20573;-69
2023/03/24 07:20:10;;;;;;;9.93;3.00;;;;;;;10.47;74.07;99753.47;5113594;28;20171;-69
2023/03/24 07:22:47;;;;;;;4.93;3.20;;;;;;;10.57;73.29;99732.94;5096036;28;20215;-69
2023/03/24 07:25:32;;;;;;;4.33;3.30;;;;;;;10.61;74.15;99741.56;5113807;28;20177;-69
2023/03/24 07:28:19;;;;;;;6.70;2.77;;;;;;;10.67;73.09;99749.03;5112820;28;20540;-70
2023/03/24 07:30:46;;;;;;;3.87;2.67;;;;;;;10.70;72.68;99740.72;5095405;28;20246;-69
2023/03/24 07:33:12;;;;;;;7.77;3.47;;;;;;;10.76;73.58;99742.03;5095083;28;20217;-68
2023/03/24 07:35:42;;;;;;;9.27;2.27;;;;;;;10.73;72.72;99726.25;5095127;28;20189;-69
2023/03/24 07:38:09;;;;;;;2.87;1.90;;;;;;;10.78;72.95;99735.56;5095037;28;20209;-69
2023/03/24 07:40:36;;;;;;;3.77;2.37;;;;;;;10.92;73.57;99741.50;5094963;28;20189;-69
2023/03/24 07:43:04;;;;;;;2.60;2.37;;;;;;;11.01;71.25;99756.75;5113289;28;20653;-69
2023/03/24 07:45:51;;;;;;;4.23;1.63;;;;;;;11.12;71.43;99750.47;5113932;28;20173;-70
2023/03/24 07:48:18;;;;;;;5.93;2.60;;;;;;;11.24;70.91;99741.31;5113329;28;20185;-70
2023/03/24 07:50:47;;;;;;;6.17;2.57;;;;;;;11.22;70.78;99738.75;5095094;28;20224;-70
2023/03/24 07:53:32;;;;;;;6.57;1.97;;;;;;;11.20;70.19;99745.25;5113441;28;20804;-69
2023/03/24 07:55:59;;;;;;;4.53;2.23;;;;;;;11.17;69.77;99748.19;5115431;28;20182;-70
2023/03/24 07:58:25;;;;;;;3.30;2.23;;;;;;;11.22;71.06;99759.34;5098740;28;20254;-69
2023/03/24 08:01:12;;;;;;;6.80;2.23;;;;;;;11.17;69.62;99754.41;5099551;28;20581;-69
2023/03/24 08:03:42;;;;;;;5.97;2.33;;;;;;;11.24;68.96;99762.75;5098701;28;20660;-69
2023/03/24 08:06:15;;;;;;;4.50;3.10;;;;;;;11.20;69.47;99756.81;5117234;28;20174;-69
2023/03/24 08:08:45;;;;;;;5.83;2.10;;;;;;;11.34;70.33;99777.00;5116877;28;20177;-69
2023/03/24 08:11:11;;;;;;;5.13;2.30;;;;;;;11.48;69.33;99773.06;5116868;28;20670;-69
2023/03/24 08:13:38;;;;;;;7.57;2.30;;;;;;;11.57;69.33;99774.94;5116613;28;20201;-69
2023/03/24 08:16:05;;;;;;;3.90;2.57;;;;;;;11.59;69.60;99786.38;5116710;28;20186;-69
2023/03/24 08:18:33;;;;;;;6.03;2.33;;;;;;;11.63;69.01;99777.03;5116990;28;20609;-70
2023/03/24 08:21:01;;;;;;;5.80;2.17;;;;;;;11.81;70.25;99784.38;5116631;28;20189;-70
2023/03/24 08:23:27;;;;;;;8.30;3.00;;;;;;;12.09;69.11;99788.06;5116450;28;20205;-69
2023/03/24 08:25:54;;;;;;;3.93;2.23;;;;;;;12.32;68.52;99796.66;5116551;28;20193;-69
2023/03/24 08:28:20;;;;;;;6.60;2.70;;;;;;;12.03;66.15;99792.16;5116842;28;20178;-70
2023/03/24 08:30:47;;;;;;;3.60;1.87;;;;;;;11.87;67.34;99792.72;5116374;28;20188;-70
2023/03/24 08:33:15;;;;;;;7.80;2.70;;;;;;;12.00;67.93;99799.66;5116313;28;20209;-69
2023/03/24 08:35:44;;;;;;;8.63;2.37;;;;;;;12.09;68.35;99791.59;5116384;28;20181;-69
2023/03/24 08:38:11;;;;;;;6.20;1.80;;;;;;;12.02;66.64;99801.22;5116298;28;20193;-70
2023/03/24 08:40:39;;;;;;;11.63;1.90;;;;;;;11.74;66.99;99802.88;5116287;28;20234;-70
2023/03/24 08:43:10;;;;;;;4.23;2.33;;;;;;;11.51;68.24;99807.66;5116171;28;20289;-70
2023/03/24 08:45:37;;;;;;;2.43;2.33;;;;;;;11.50;69.17;99803.28;5116671;28;20682;-70
2023/03/24 08:48:06;;;;;;;8.83;2.23;;;;;;;11.57;68.61;99811.63;5116386;28;20181;-70
2023/03/24 08:50:36;;;;;;;3.93;2.47;;;;;;;11.58;69.12;99807.94;5116018;28;20272;-70
2023/03/24 08:53:03;;;;;;;6.27;2.30;;;;;;;11.74;68.96;99802.03;5116239;28;20272;-69
2023/03/24 08:55:29;;;;;;;3.13;2.37;;;;;;;11.98;68.00;99804.31;5115919;28;20195;-69
2023/03/24 08:57:56;;;;;;;4.33;2.70;;;;;;;12.10;67.10;99811.22;5115889;28;20719;-70
2023/03/24 09:00:24;;;;;;;4.80;2.20;;;;;;;12.20;67.01;99795.13;5115854;28;20192;-70
2023/03/24 09:02:52;;;;;;;11.53;2.70;;;;;;;12.37;68.35;99801.59;5115752;28;20220;-70
2023/03/24 09:05:21;;;;;;;4.53;2.07;;;;;;;12.49;66.76;99809.31;5116001;28;20205;-70
2023/03/24 09:08:06;;;;;;;2.23;2.07;;;;;;;12.47;66.01;99805.09;5115075;28;20569;-70
2023/03/24 09:10:33;;;;;;;9.37;2.27;;;;;;;12.11;65.26;99807.56;5115641;28;20809;-70
2023/03/24 09:12:59;;;;;;;7.93;3.03;;;;;;;12.01;66.66;99809.41;5116062;28;20208;-70
2023/03/24 09:15:26;;;;;;;12.60;2.13;;;;;;;11.91;65.23;99804.03;5115573;28;20181;-70
2023/03/24 09:17:52;;;;;;;3.33;2.60;;;;;;;11.86;65.38;99819.69;5115541;28;20191;-70
2023/03/24 09:20:19;;;;;;;6.23;2.47;;;;;;;12.03;65.62;99816.31;5115491;28;20190;-70
2023/03/24 09:22:46;;;;;;;10.80;2.57;;;;;;;12.15;64.73;99824.22;5115273;28;20222;-70
2023/03/24 09:25:15;;;;;;;4.93;2.40;;;;;;;12.05;65.26;99811.66;5115546;28;20566;-70
2023/03/24 09:27:42;;;;;;;4.37;2.50;;;;;;;12.33;64.88;99828.72;5115316;28;20193;-70
2023/03/24 09:30:10;;;;;;;14.93;2.70;;;;;;;12.67;67.24;99827.38;5115205;28;20272;-70
2023/03/24 09:32:37;;;;;;;7.80;3.03;;;;;;;12.64;64.24;99823.16;5115658;28;20205;-69
2023/03/24 09:35:04;;;;;;;9.20;3.23;;;;;;;12.84;65.27;99826.59;5115173;28;20268;-70
2023/03/24 09:37:32;;;;;;;13.00;3.53;;;;;;;13.14;64.97;99836.22;5115147;28;20281;-70
2023/03/24 09:40:00;;;;;;;5.00;2.60;;;;;;;12.75;63.91;99832.84;5115093;28;20216;-70
2023/03/24 09:42:31;;;;;;;21.07;2.83;;;;;;;13.18;64.95;99834.09;5114962;28;20212;-69
2023/03/24 09:45:03;;;;;;;9.60;3.40;;;;;;;13.14;62.83;99832.69;5115267;28;20207;-70
2023/03/24 09:47:38;;;;;;;4.67;3.33;;;;;;;12.91;64.61;99834.94;5115441;28;20647;-70
2023/03/24 09:50:15;;;;;;;6.03;2.50;;;;;;;12.88;64.83;99837.91;5115452;28;20696;-70
2023/03/24 09:52:47;;;;;;;6.00;2.53;;;;;;;12.74;61.98;99837.41;5115242;28;20686;-70
2023/03/24 09:55:20;;;;;;;10.90;3.57;;;;;;;12.82;61.35;99844.72;5115291;28;20496;-70
2023/03/24 09:57:48;;;;;;;9.27;3.30;;;;;;;12.69;63.07;99831.63;5115152;28;20250;-70
2023/03/24 10:00:18;;;;;;;7.00;1.83;;;;;;;12.75;62.56;99840.91;5115084;28;20268;-70
2023/03/24 10:02:45;;;;;;;6.33;2.40;;;;;;;13.07;64.34;99843.22;5114572;28;20209;-69
2023/03/24 10:05:22;;;;;;;8.67;2.33;;;;;;;13.10;63.11;99852.84;5114476;28;20201;-69
2023/03/24 10:07:56;;;;;;;4.43;2.10;;;;;;;13.14;61.03;99841.59;5114896;28;20256;-69
2023/03/24 10:10:35;;;;;;;3.10;2.50;;;;;;;12.98;62.87;99853.00;5114784;28;20173;-69
2023/03/24 10:13:35;;;;;;;4.40;2.47;;;;;;;12.99;62.54;99862.75;5114812;28;20295;-68
2023/03/24 10:16:31;;;;;;;4.57;2.30;;;;;;;12.77;62.59;99872.03;5114988;28;20176;-70
2023/03/24 10:19:15;;;;;;;6.97;2.97;;;;;;;12.96;61.94;99879.19;5069575;28;20611;-69
2023/03/24 10:22:24;;;;;;;3.27;2.30;;;;;;;12.98;61.57;99871.81;5114640;28;20257;-69
2023/03/24 10:25:03;;;;;;;4.83;2.20;;;;;;;12.91;61.70;99878.78;5012102;28;20224;-69
2023/03/24 10:28:01;;;;;;;4.03;2.37;;;;;;;13.03;63.17;99873.22;5011955;28;20291;-69
2023/03/24 10:30:33;;;;;;;6.90;2.50;;;;;;;12.76;62.60;99882.91;5091386;28;20284;-69
2023/03/24 10:32:59;;;;;;;7.23;2.30;;;;;;;13.19;64.38;99876.97;5114055;28;20229;-68
2023/03/24 10:35:34;;;;;;;4.87;2.93;;;;;;;13.52;60.57;99879.25;5114151;28;20231;-69
2023/03/24 10:38:12;;;;;;;4.03;2.70;;;;;;;13.39;59.11;99890.38;5095901;28;20184;-69
2023/03/24 10:40:40;;;;;;;5.50;1.97;;;;;;;13.23;59.88;99895.50;5114324;28;20201;-69
2023/03/24 10:43:07;;;;;;;10.13;2.97;;;;;;;13.55;60.60;99885.19;5113860;28;20201;-68
2023/03/24 10:45:38;;;;;;;3.87;2.17;;;;;;;14.00;58.63;99903.16;5113749;28;20209;-69
2023/03/24 10:48:06;;;;;;;7.17;2.00;;;;;;;13.90;58.38;99899.69;5113793;28;20193;-69
2023/03/24 10:50:34;;;;;;;5.73;2.37;;;;;;;13.99;58.39;99887.16;5114094;28;20193;-69
2023/03/24 10:53:08;;;;;;;2.30;2.17;;;;;;;14.43;57.79;99890.75;5113984;28;20287;-69
2023/03/24 10:55:42;;;;;;;13.00;2.47;;;;;;;14.25;54.50;99898.84;5114049;28;20173;-69
2023/03/24 10:58:36;;;;;;;1.67;1.67;;;;;;;13.80;55.02;99893.53;5113788;28;20201;-69
2023/03/24 11:01:19;;;;;;;3.33;2.17;;;;;;;13.23;57.62;99901.72;5110185;28;20279;-69
2023/03/24 11:03:46;;;;;;;2.63;2.43;;;;;;;13.04;57.24;99899.09;5113568;28;20229;-69
2023/03/24 11:06:17;;;;;;;4.93;1.80;;;;;;;13.05;58.62;99893.59;5113594;28;20249;-69
2023/03/24 11:08:44;;;;;;;8.43;2.33;;;;;;;13.01;57.08;99905.63;5113616;28;20219;-69
2023/03/24 11:11:35;;;;;;;2.73;2.00;;;;;;;12.88;57.15;99897.88;5114110;28;20271;-69
2023/03/24 11:14:02;;;;;;;4.93;2.10;;;;;;;12.70;59.79;99895.09;5113262;28;20322;-68
2023/03/24 11:16:36;;;;;;;1.53;1.43;;;;;;;12.62;59.11;99903.03;5095357;28;20262;-68
2023/03/24 11:19:05;;;;;;;9.80;1.93;;;;;;;12.59;58.09;99900.63;5113450;28;20177;-69
2023/03/24 11:21:35;;;;;;;2.73;2.50;;;;;;;12.57;59.42;99910.69;5113637;28;20556;-69
2023/03/24 11:24:09;;;;;;;5.90;1.73;;;;;;;12.60;58.31;99906.84;5113476;28;20254;-69
2023/03/24 11:26:38;;;;;;;6.00;2.10;;;;;;;12.77;58.17;99900.75;5113518;28;20335;-69
2023/03/24 11:29:20;;;;;;;3.30;2.60;;;;;;;13.12;58.52;99896.50;5113435;28;20230;-69
2023/03/24 11:32:00;;;;;;;7.67;2.77;;;;;;;13.39;58.55;99909.19;5117365;28;20192;-69
2023/03/24 11:34:33;;;;;;;9.17;2.13;;;;;;;13.67;57.44;99911.88;5117449;28;20765;-69
2023/03/24 11:37:22;;;;;;;8.10;1.97;;;;;;;13.54;56.07;99896.09;5117674;28;20185;-69
2023/03/24 11:40:21;;;;;;;8.67;1.87;;;;;;;14.02;59.24;99901.16;5117992;28;20533;-69
2023/03/24 11:42:50;;;;;;;7.33;2.33;;;;;;;13.95;56.13;99894.69;5117535;28;20620;-69
2023/03/24 11:45:42;;;;;;;1.60;1.60;;;;;;;13.69;54.12;99894.56;5117213;28;20662;-69
2023/03/24 11:48:32;;;;;;;2.37;1.60;;;;;;;14.02;55.31;99903.00;5117456;28;20552;-69
2023/03/24 11:51:01;;;;;;;7.30;2.00;;;;;;;13.76;55.46;99900.19;5117243;28;20197;-69
2023/03/24 11:53:41;;;;;;;1.93;1.83;;;;;;;13.55;55.34;99908.53;5117295;28;20545;-69
2023/03/24 11:56:26;;;;;;;2.20;1.70;;;;;;;13.34;54.37;99914.19;5117394;28;20248;-69
2023/03/24 11:59:06;;;;;;;4.23;2.33;;;;;;;13.24;55.88;99907.94;5117343;28;20196;-69
2023/03/24 12:01:42;;;;;;;2.67;1.83;;;;;;;13.11;56.84;99905.59;5117299;28;20216;-69
2023/03/24 12:04:30;;;;;;;2.73;1.70;;;;;;;13.03;57.13;99910.88;5117121;28;20226;-69
2023/03/24 12:07:13;;;;;;;6.70;1.97;;;;;;;13.25;58.40;99904.28;5116905;28;20178;-69
2023/03/24 12:10:16;;;;;;;8.17;1.90;;;;;;;13.69;57.37;99907.19;5116844;28;20208;-69